Jard de Carolina, Puerto Rico
Current Conditions -  °F | °C
As of 9:56 AM on Thursday 27 Nov 2014 (Local Time) from TJSJ Reporting Station
Few Clouds Few Clouds  
Wind Chill: 83°   Ceiling: Unl
Heat Index: 88°   Visibility: 10mi
Dew Point: 72°   Wind: 6mph
Humidity: 69%   Direction: 70°ENE
Pressure: 30.02"   Gusts: NA
Location:  18.4083°N, 65.981°W
Report Text: TJSJ 271356Z 07005KT 10SM FEW038 28/22 A3002 RMK AO2 SLP166 T02830222
Loading
Personal Weather Stations






























Interactive Weather Map New forecast layout! Learn more

10-Day Weather Forecast

Advertisements
Track Severe Weather on mobile